Omaha, Nebraska
Current Conditions -  °F | °C
As of 4:52 PM on Tuesday 25 Nov 2014 (Local Time) from KOMA Reporting Station
Overcast Overcast  
Wind Chill: 32°   Ceiling: 20000
Heat Index: 39°   Visibility: 10mi
Dew Point: 25°   Wind: 12mph
Humidity: 57%   Direction: 150°SSE
Pressure: 29.97"   Gusts: NA
Location:  41.26°N, 95.94°W
Report Text: KOMA 252252Z 15010KT 10SM FEW130 OVC200 04/M04 A2997 RMK AO2 SLP160 T00391039
Loading
Personal Weather Stations






























Interactive Weather Map New forecast layout! Learn more

10-Day Weather Forecast

Advertisements
Track Severe Weather on mobile